DTTX/SFA METAR and TAF weather

Enter ICAO airport designator
Station Type Date Time Source
DTTX METAR 2021/02/27 22:00 UTC NOAA

DTTX 272200Z 33003KT 8000 FEW020 11/08 Q1023


Station Type Date Time Source
DTTX Decoded METAR 2021/02/27 22:00 UTC NOAA

Sfax El-Maou, Tunisia (DTTX) 34-43N 010-41E 23M
Feb 27, 2021 - 05:00 PM EST / 2021.02.27 2200 UTC
Wind: from the NNW (330 degrees) at 3 MPH (3 KT):0
Visibility: 4 mile(s):0
Sky conditions: mostly clear
Temperature: 51 F (11 C)
Dew Point: 46 F (8 C)
Relative Humidity: 81%
Pressure (altimeter): 30.21 in. Hg (1023 hPa)
ob: DTTX 272200Z 33003KT 8000 FEW020 11/08 Q1023
cycle: 22

Station Type Date Time Source
DTTX TAF 2021/02/27 18:12 UTC NOAA

TAF DTTX 271700Z 2718/2818 13010KT 8000 FEW030 PROB40
TEMPO 2803/2805 4000 BR
TEMPO 2805/2809 0800 FG FEW010

Example: see airport list